CPX217 Details

Departure: Sacramento International Airport (KSMF) at 0520 UTC
Arrival: Chicago/Rockford International Airport (KRFD) at 0955 UTC
Route: SCTWN2 RALEY INSLO DTA DBL J60 IOW PLL
Notes:


Current Weather Information
KSMF 190753Z 15006KT 10SM CLR 13/09 A3004 RMK AO2 SLP171 T01280089 402330061
KRFD 190754Z 17005KT 10SM CLR 08/04 A2987 RMK AO2 SLP117 T00780044